Time;durP1;ratioP1;P1;durP2;ratioP2;P2;SDS_P1;SDS_P2;PMS_P1;PMS_P2;Temp;Humidity;BMP_temperature;BMP_pressure;BME280_temperature;BME280_humidity;BME280_pressure;Samples;Min_cycle;Max_cycle;Signal;HPM_P1;HPM_P2
2022/01/31 00:00:56;;;;;;;;;7.25;7.25;;;;;8.52;62.60;101771.56;5110534;27;45427;-81
2022/01/31 00:03:22;;;;;;;;;9.00;8.50;;;;;8.52;62.80;101784.69;5096889;27;45290;-81
2022/01/31 00:05:47;;;;;;;;;9.50;8.50;;;;;8.14;62.83;101735.22;5108738;27;44932;-81
2022/01/31 00:08:14;;;;;;;;;12.50;10.00;;;;;8.11;63.04;101727.19;5097163;27;45743;-81
2022/01/31 00:10:40;;;;;;;;;11.25;10.75;;;;;8.06;62.97;101712.91;5095081;27;45620;-82
2022/01/31 00:13:13;;;;;;;;;9.00;7.00;;;;;8.27;63.48;101745.59;5105917;27;45216;-81
2022/01/31 00:15:42;;;;;;;;;9.25;9.25;;;;;7.97;63.29;101687.06;5095601;27;45154;-81
2022/01/31 00:18:08;;;;;;;;;10.75;9.25;;;;;8.26;63.29;101726.38;5094816;27;46057;-82
2022/01/31 00:20:35;;;;;;;;;9.00;9.00;;;;;8.10;63.38;101694.88;5099117;27;45638;-82
2022/01/31 00:23:01;;;;;;;;;14.25;13.00;;;;;8.19;63.09;101716.38;5086684;27;45360;-81
2022/01/31 00:25:26;;;;;;;;;11.25;9.00;;;;;8.02;63.11;101680.41;5093591;27;45209;-81
2022/01/31 00:27:51;;;;;;;;;15.00;12.50;;;;;7.81;63.29;101642.50;5094116;27;45631;-81
2022/01/31 00:30:17;;;;;;;;;7.25;7.25;;;;;8.01;63.20;101689.97;5109524;27;44917;-83
2022/01/31 00:32:43;;;;;;;;;8.00;7.00;;;;;8.05;63.31;101711.13;5082430;27;45662;-81
2022/01/31 00:35:09;;;;;;;;;9.25;8.25;;;;;8.01;63.58;101704.78;5108665;27;45289;-82
2022/01/31 00:37:35;;;;;;;;;8.00;7.00;;;;;7.87;63.40;101674.25;5090590;27;46207;-81
2022/01/31 00:40:02;;;;;;;;;6.75;6.25;;;;;7.79;63.41;101654.59;5108052;27;45601;-81
2022/01/31 00:42:28;;;;;;;;;7.75;7.75;;;;;7.61;63.75;101621.25;5095288;27;45476;-83
2022/01/31 00:44:57;;;;;;;;;7.00;6.50;;;;;7.60;63.54;101613.31;5109679;27;44905;-81
2022/01/31 00:47:25;;;;;;;;;3.50;3.50;;;;;7.73;63.45;101650.78;5092171;27;46380;-82
2022/01/31 00:49:55;;;;;;;;;9.25;6.75;;;;;7.55;63.77;101640.91;5098262;27;45099;-82
2022/01/31 00:52:20;;;;;;;;;6.00;6.00;;;;;7.44;63.45;101619.34;5108667;27;45192;-81
2022/01/31 00:54:47;;;;;;;;;8.00;7.25;;;;;7.73;63.84;101671.72;5104604;27;45432;-81
2022/01/31 00:57:13;;;;;;;;;8.00;7.25;;;;;7.65;63.77;101680.81;5095779;27;45396;-81
2022/01/31 00:59:38;;;;;;;;;6.00;5.25;;;;;7.49;63.84;101646.69;5108277;27;45036;-81
2022/01/31 01:02:04;;;;;;;;;8.75;8.00;;;;;7.79;63.97;101683.38;5108653;27;45608;-81
2022/01/31 01:04:29;;;;;;;;;8.25;7.50;;;;;7.72;63.93;101648.97;5089651;27;45329;-81
2022/01/31 01:06:55;;;;;;;;;6.50;6.50;;;;;7.68;63.70;101626.03;5090608;27;46285;-81
2022/01/31 01:09:21;;;;;;;;;6.75;6.25;;;;;7.94;63.62;101648.56;5106043;27;45158;-81
2022/01/31 01:11:46;;;;;;;;;7.25;6.50;;;;;8.05;63.66;101641.31;5107663;27;46436;-81
2022/01/31 01:14:11;;;;;;;;;7.33;6.33;;;;;7.98;63.70;101618.22;5109843;27;45473;-81
2022/01/31 01:16:37;;;;;;;;;4.00;4.00;;;;;7.79;63.48;101582.22;5109316;27;45222;-82
2022/01/31 01:19:03;;;;;;;;;8.00;7.67;;;;;8.17;63.40;101636.78;5096245;27;45096;-82
2022/01/31 01:21:29;;;;;;;;;7.00;6.00;;;;;8.08;63.40;101606.56;5111176;27;45267;-82
2022/01/31 01:23:54;;;;;;;;;6.50;4.25;;;;;7.91;63.63;101582.91;5098427;27;45252;-81
2022/01/31 01:26:20;;;;;;;;;5.00;4.00;;;;;7.83;63.29;101568.50;5101503;27;45999;-81
2022/01/31 01:28:46;;;;;;;;;4.00;4.00;;;;;8.12;63.34;101608.53;5110746;27;45148;-81
2022/01/31 01:31:11;;;;;;;;;3.00;3.00;;;;;7.99;63.52;101581.66;5099203;27;45105;-82
2022/01/31 01:33:40;;;;;;;;;3.00;3.00;;;;;7.93;63.57;101560.38;5105334;27;45122;-82
2022/01/31 01:36:07;;;;;;;;;5.50;3.50;;;;;8.01;63.58;101579.13;5109774;27;45448;-81
2022/01/31 01:38:33;;;;;;;;;5.75;5.25;;;;;7.98;63.43;101543.22;5092854;27;45131;-82
2022/01/31 01:40:59;;;;;;;;;3.00;3.00;;;;;7.84;63.80;101509.22;5089767;27;45257;-82
2022/01/31 01:43:25;;;;;;;;;6.00;5.25;;;;;7.83;63.57;101503.09;5105993;27;44918;-82
2022/01/31 01:45:52;;;;;;;;;6.00;3.75;;;;;7.96;63.79;101538.69;5086845;27;45328;-82
2022/01/31 01:48:18;;;;;;;;;2.25;2.00;;;;;7.81;63.86;101512.53;5091459;27;45240;-81
2022/01/31 01:50:44;;;;;;;;;3.00;3.00;;;;;8.07;64.09;101555.00;5104512;27;45260;-82
2022/01/31 01:53:09;;;;;;;;;6.00;4.00;;;;;7.97;63.84;101551.84;5091564;27;45015;-83
2022/01/31 01:55:35;;;;;;;;;7.00;3.25;;;;;7.91;64.20;101527.06;5107549;27;46964;-81
2022/01/31 01:58:15;;;;;;;;;7.50;4.75;;;;;8.01;64.32;101552.94;5095996;27;45298;-83
2022/01/31 02:00:51;;;;;;;;;3.25;2.25;;;;;7.75;64.28;101499.09;5098298;27;44996;-80
2022/01/31 02:03:20;;;;;;;;;5.50;5.25;;;;;7.65;64.39;101494.16;5097930;27;45266;-81
2022/01/31 02:05:47;;;;;;;;;5.00;3.50;;;;;7.92;64.41;101565.50;5101715;27;45697;-81
2022/01/31 02:08:14;;;;;;;;;4.00;3.25;;;;;7.92;64.78;101555.03;5102707;27;45846;-80
2022/01/31 02:10:41;;;;;;;;;4.25;3.00;;;;;7.78;64.76;101507.13;5107754;27;44731;-81
2022/01/31 02:13:08;;;;;;;;;6.00;4.25;;;;;7.81;64.71;101530.84;5092019;27;45138;-82
2022/01/31 02:15:34;;;;;;;;;6.50;5.75;;;;;7.79;64.65;101505.44;5089687;27;47058;-81
2022/01/31 02:18:00;;;;;;;;;3.25;2.75;;;;;7.85;65.00;101519.75;5091577;27;45209;-81
2022/01/31 02:20:26;;;;;;;;;7.00;4.00;;;;;7.67;65.06;101496.03;5107702;27;45224;-81
2022/01/31 02:22:51;;;;;;;;;3.75;2.75;;;;;8.01;65.42;101538.13;5093598;27;45200;-82
2022/01/31 02:25:17;;;;;;;;;5.50;3.25;;;;;7.85;65.44;101487.47;5105627;27;45451;-81
2022/01/31 02:27:43;;;;;;;;;1.50;1.50;;;;;8.09;65.35;101529.84;5083608;27;45394;-81
2022/01/31 02:30:15;;;;;;;;;6.00;6.00;;;;;7.79;65.49;101492.34;5093045;27;44979;-81
2022/01/31 02:32:40;;;;;;;;;4.00;2.75;;;;;7.93;66.17;101522.81;5097469;27;45575;-81
2022/01/31 02:35:06;;;;;;;;;4.00;3.00;;;;;8.02;66.37;101523.34;5095254;27;46351;-81
2022/01/31 02:37:32;;;;;;;;;3.50;2.50;;;;;8.13;66.38;101508.25;5101508;27;46055;-81
2022/01/31 02:39:58;;;;;;;;;2.75;2.50;;;;;8.17;66.21;101499.75;5121841;27;45701;-81
2022/01/31 02:42:23;;;;;;;;;3.00;3.00;;;;;8.11;66.38;101495.06;5124876;27;45483;-82
2022/01/31 02:44:49;;;;;;;;;3.00;3.00;;;;;8.25;66.29;101501.06;5099384;27;45496;-83
2022/01/31 02:47:22;;;;;;;;;5.50;5.00;;;;;7.98;66.10;101461.19;5110031;27;45023;-85
2022/01/31 02:50:00;;;;;;;;;3.00;2.00;;;;;8.18;66.71;101486.75;5092758;27;45141;-83
2022/01/31 02:52:29;;;;;;;;;3.25;3.25;;;;;8.02;66.75;101440.47;5103311;27;45222;-82
2022/01/31 02:54:54;;;;;;;;;6.00;3.25;;;;;8.29;66.84;101482.09;5108009;27;45648;-82
2022/01/31 02:57:20;;;;;;;;;2.75;2.00;;;;;8.12;66.75;101454.97;5107371;27;45307;-82
2022/01/31 02:59:45;;;;;;;;;4.75;4.00;;;;;8.04;66.97;101437.94;5101397;27;45129;-81
2022/01/31 03:02:10;;;;;;;;;3.00;2.00;;;;;8.22;66.60;101467.75;5102943;27;44956;-82
2022/01/31 03:04:36;;;;;;;;;2.25;2.25;;;;;8.03;66.92;101423.06;5100427;27;45357;-82
2022/01/31 03:07:01;;;;;;;;;2.00;2.00;;;;;8.14;66.90;101436.75;5110224;27;46645;-83
2022/01/31 03:09:26;;;;;;;;;1.00;1.00;;;;;8.30;67.67;101448.97;5112831;27;45014;-82
2022/01/31 03:11:52;;;;;;;;;2.50;2.50;;;;;8.26;67.57;101456.63;5112617;27;45262;-81
2022/01/31 03:14:19;;;;;;;;;2.75;2.75;;;;;8.31;68.14;101463.84;5114390;27;46015;-82
2022/01/31 03:16:46;;;;;;;;;2.00;1.50;;;;;8.33;68.14;101442.19;5112545;27;45333;-82
2022/01/31 03:19:12;;;;;;;;;2.50;2.00;;;;;8.00;68.51;101379.28;5111225;27;44921;-81
2022/01/31 03:21:38;;;;;;;;;7.00;3.50;;;;;8.35;68.40;101430.06;5112170;27;45207;-82
2022/01/31 03:24:04;;;;;;;;;3.50;3.00;;;;;8.19;68.54;101410.00;5093857;27;45308;-83
2022/01/31 03:26:30;;;;;;;;;1.00;1.00;;;;;8.14;68.85;101387.91;5093564;27;45062;-83
2022/01/31 03:28:55;;;;;;;;;2.00;1.00;;;;;8.25;68.85;101402.47;5094812;27;45043;-81
2022/01/31 03:31:21;;;;;;;;;2.00;1.75;;;;;8.29;68.99;101408.78;5096803;27;45157;-82
2022/01/31 03:33:48;;;;;;;;;6.00;6.00;;;;;8.20;69.10;101377.75;5104231;27;48206;-81
2022/01/31 03:36:13;;;;;;;;;2.75;1.25;;;;;7.98;69.21;101365.22;5102029;27;45711;-81
2022/01/31 03:38:41;;;;;;;;;2.25;2.25;;;;;8.19;69.38;101396.91;5107638;27;45377;-82
2022/01/31 03:41:08;;;;;;;;;4.00;3.00;;;;;8.05;69.55;101396.97;5102099;27;45431;-81
2022/01/31 03:43:33;;;;;;;;;2.50;2.00;;;;;7.98;69.78;101372.19;5093303;27;46248;-81
2022/01/31 03:45:58;;;;;;;;;3.00;3.00;;;;;8.05;69.95;101373.41;5097646;27;44979;-81
2022/01/31 03:48:24;;;;;;;;;3.50;2.00;;;;;8.09;70.08;101376.28;5129693;27;45184;-81
2022/01/31 03:50:50;;;;;;;;;2.75;2.75;;;;;8.39;70.10;101415.44;5118494;27;45694;-81
2022/01/31 03:53:15;;;;;;;;;3.00;2.00;;;;;8.18;70.13;101384.63;5116762;27;47989;-81
2022/01/31 03:55:40;;;;;;;;;4.25;2.50;;;;;8.11;69.90;101366.78;5099477;27;45203;-81
2022/01/31 03:58:06;;;;;;;;;2.00;2.00;;;;;8.31;70.05;101390.53;5111816;27;45166;-81
2022/01/31 04:00:31;;;;;;;;;4.50;3.75;;;;;8.37;70.65;101385.63;5112034;27;45011;-81
2022/01/31 04:02:57;;;;;;;;;1.50;1.00;;;;;8.24;70.70;101357.88;5105180;27;45655;-80
2022/01/31 04:05:22;;;;;;;;;1.00;1.00;;;;;8.32;71.38;101384.47;5091097;27;49814;-81
2022/01/31 04:07:47;;;;;;;;;3.25;2.25;;;;;8.17;72.79;101354.00;5093156;27;45089;-81
2022/01/31 04:10:13;;;;;;;;;2.25;1.50;;;;;8.22;72.06;101363.00;5092956;27;45088;-81
2022/01/31 04:12:38;;;;;;;;;2.67;2.00;;;;;8.22;72.54;101352.53;5093269;27;46058;-81
2022/01/31 04:15:04;;;;;;;;;3.25;2.00;;;;;8.25;72.88;101389.38;5092918;27;44941;-81
2022/01/31 04:17:32;;;;;;;;;4.00;3.00;;;;;8.22;73.21;101396.16;5094329;27;45102;-82
2022/01/31 04:19:57;;;;;;;;;1.25;1.25;;;;;7.87;73.50;101339.25;5093405;27;44941;-80
2022/01/31 04:22:25;;;;;;;;;2.00;1.75;;;;;8.04;73.21;101382.97;5091519;28;46827;-82
2022/01/31 04:24:55;;;;;;;;;2.75;2.00;;;;;7.99;73.81;101373.97;5090730;27;45415;-81
2022/01/31 04:27:20;;;;;;;;;0.00;0.00;;;;;8.20;74.02;101390.84;5092558;27;45086;-81
2022/01/31 04:29:48;;;;;;;;;2.00;1.00;;;;;8.29;74.03;101393.06;5090368;27;44936;-82
2022/01/31 04:32:13;;;;;;;;;1.25;1.25;;;;;8.03;74.13;101362.88;5075051;27;45413;-85
2022/01/31 04:34:39;;;;;;;;;1.00;1.00;;;;;8.39;74.42;101420.69;5095506;27;45139;-82
2022/01/31 04:37:04;;;;;;;;;1.00;0.75;;;;;8.44;74.42;101413.97;5114218;27;45292;-83
2022/01/31 04:39:31;;;;;;;;;1.00;1.00;;;;;8.52;74.28;101423.13;5113712;27;45287;-81
2022/01/31 04:41:57;;;;;;;;;1.50;0.50;;;;;8.50;74.44;101414.31;5105666;27;46045;-85
2022/01/31 04:44:23;;;;;;;;;0.25;0.25;;;;;8.44;74.63;101385.16;5110309;27;44937;-83
2022/01/31 04:46:52;;;;;;;;;1.00;0.00;;;;;8.58;74.39;101401.63;5076596;27;45212;-84
2022/01/31 04:49:18;;;;;;;;;1.00;1.00;;;;;8.62;74.67;101401.88;5093053;27;45231;-84
2022/01/31 04:51:44;;;;;;;;;1.00;0.75;;;;;8.57;74.41;101371.91;5092430;27;45538;-85
2022/01/31 04:54:09;;;;;;;;;1.00;1.00;;;;;8.77;74.60;101379.09;5081767;27;45374;-84
2022/01/31 04:56:36;;;;;;;;;0.00;0.00;;;;;8.68;74.41;101357.63;5092747;27;45441;-85
2022/01/31 04:59:02;;;;;;;;;0.50;0.50;;;;;8.69;74.46;101341.09;5098675;27;45334;-84
2022/01/31 05:01:28;;;;;;;;;1.00;1.00;;;;;8.88;74.52;101373.50;5092343;28;45219;-82
2022/01/31 05:03:53;;;;;;;;;2.75;0.00;;;;;8.87;74.22;101379.56;5092376;27;45070;-82
2022/01/31 05:06:25;;;;;;;;;1.75;1.00;;;;;8.86;74.28;101377.75;5093759;27;44945;-82
2022/01/31 05:08:51;;;;;;;;;1.00;0.50;;;;;9.07;74.29;101410.31;5106178;27;45505;-81
2022/01/31 05:11:17;;;;;;;;;1.00;1.00;;;;;8.86;74.14;101376.00;5092679;27;46985;-81
2022/01/31 05:13:42;;;;;;;;;0.75;0.75;;;;;8.90;74.20;101380.59;5094172;27;45394;-81
2022/01/31 05:16:08;;;;;;;;;1.25;1.00;;;;;8.99;74.02;101388.03;5093369;27;45338;-81
2022/01/31 05:18:33;;;;;;;;;2.00;2.00;;;;;8.83;73.99;101352.28;5096782;27;45574;-82
2022/01/31 05:20:59;;;;;;;;;1.00;1.00;;;;;8.97;73.98;101373.97;5104397;27;48135;-82
2022/01/31 05:23:24;;;;;;;;;1.00;1.00;;;;;8.98;74.20;101370.53;5110840;27;45089;-81
2022/01/31 05:25:50;;;;;;;;;2.50;2.00;;;;;8.93;73.40;101370.28;5111349;27;44991;-82
2022/01/31 05:28:15;;;;;;;;;1.00;0.25;;;;;9.15;73.32;101408.97;5110779;27;45385;-82
2022/01/31 05:30:41;;;;;;;;;0.00;0.00;;;;;9.13;73.07;101405.38;5111770;27;45863;-82
2022/01/31 05:33:06;;;;;;;;;1.00;1.00;;;;;9.03;73.94;101404.00;5110815;27;45398;-81
2022/01/31 05:35:32;;;;;;;;;1.00;1.00;;;;;9.18;73.72;101430.13;5108245;27;44900;-82
2022/01/31 05:37:57;;;;;;;;;1.25;1.25;;;;;9.09;74.16;101418.25;5106629;27;45489;-83
2022/01/31 05:40:23;;;;;;;;;2.00;1.00;;;;;8.82;73.56;101391.50;5109099;27;45428;-83
2022/01/31 05:42:48;;;;;;;;;1.00;1.00;;;;;8.99;73.46;101433.50;5107957;27;45635;-81
2022/01/31 05:45:14;;;;;;;;;1.50;1.00;;;;;9.08;73.05;101461.03;5109129;27;45210;-83
2022/01/31 05:47:39;;;;;;;;;2.00;1.75;;;;;8.97;73.26;101448.28;5111840;27;45213;-83
2022/01/31 05:50:06;;;;;;;;;1.25;1.00;;;;;8.53;73.08;101391.78;5111778;27;45785;-82
2022/01/31 05:52:31;;;;;;;;;2.00;2.00;;;;;8.59;73.01;101404.31;5110692;27;45418;-82
2022/01/31 05:54:57;;;;;;;;;1.25;1.25;;;;;8.73;72.67;101447.88;5110039;27;44956;-82
2022/01/31 05:57:22;;;;;;;;;1.00;1.00;;;;;8.62;72.28;101435.00;5111775;27;44892;-83
2022/01/31 05:59:48;;;;;;;;;1.00;1.00;;;;;8.38;72.12;101405.81;5110186;27;47390;-83
2022/01/31 06:02:13;;;;;;;;;2.00;1.50;;;;;8.41;71.91;101416.41;5108952;27;45160;-82
2022/01/31 06:04:38;;;;;;;;;1.00;1.00;;;;;8.28;71.35;101376.47;5112400;27;45277;-83
2022/01/31 06:07:04;;;;;;;;;1.00;1.00;;;;;8.55;71.48;101438.13;5112081;27;44997;-84
2022/01/31 06:09:31;;;;;;;;;1.50;1.25;;;;;8.25;71.46;101393.72;5111245;27;45117;-84
2022/01/31 06:11:57;;;;;;;;;1.00;1.00;;;;;8.46;71.06;101418.47;5105649;27;45347;-82
2022/01/31 06:14:23;;;;;;;;;1.25;0.75;;;;;8.30;71.40;101414.91;5110843;27;45272;-82
2022/01/31 06:16:49;;;;;;;;;0.50;0.00;;;;;8.14;71.93;101397.47;5121668;27;45260;-83
2022/01/31 06:19:14;;;;;;;;;3.50;2.00;;;;;8.23;71.57;101419.81;5111438;27;45162;-82
2022/01/31 06:21:40;;;;;;;;;2.00;1.50;;;;;8.15;71.65;101404.50;5111365;27;45243;-85
2022/01/31 06:24:09;;;;;;;;;1.00;0.00;;;;;8.10;71.64;101411.22;5111421;27;45707;-84
2022/01/31 06:26:38;;;;;;;;;3.00;1.25;;;;;8.35;71.39;101448.38;5111540;27;45216;-82
2022/01/31 06:29:03;;;;;;;;;2.00;2.00;;;;;8.35;71.36;101456.25;5097803;27;45443;-85
2022/01/31 06:31:30;;;;;;;;;1.50;1.00;;;;;8.10;70.50;101406.88;5093148;27;45472;-83
2022/01/31 06:33:56;;;;;;;;;1.75;1.75;;;;;8.10;70.57;101413.81;5093928;27;45379;-81
2022/01/31 06:36:23;;;;;;;;;2.00;1.50;;;;;8.18;70.14;101421.28;5091439;27;45873;-84
2022/01/31 06:38:49;;;;;;;;;1.25;1.00;;;;;8.17;70.28;101419.47;5085584;27;46395;-82
2022/01/31 06:41:16;;;;;;;;;1.00;1.00;;;;;8.09;70.15;101404.19;5103479;27;45584;-85
2022/01/31 06:43:42;;;;;;;;;0.75;0.75;;;;;8.17;69.51;101427.31;5112473;27;44934;-83
2022/01/31 06:46:07;;;;;;;;;2.00;1.00;;;;;7.96;69.71;101389.50;5110743;27;45251;-86
2022/01/31 06:48:32;;;;;;;;;2.75;1.75;;;;;7.92;69.85;101384.91;5110918;27;45100;-83
2022/01/31 06:50:58;;;;;;;;;2.75;2.00;;;;;8.09;69.54;101409.41;5105286;27;44963;-84
2022/01/31 06:53:27;;;;;;;;;2.00;1.75;;;;;8.11;69.76;101431.31;5120968;27;45284;-83
2022/01/31 06:55:53;;;;;;;;;1.00;0.25;;;;;7.92;69.56;101405.84;5111713;27;45033;-82
2022/01/31 06:58:19;;;;;;;;;1.00;1.00;;;;;8.07;69.17;101434.59;5108545;27;47066;-84
2022/01/31 07:00:44;;;;;;;;;3.00;2.00;;;;;8.11;69.02;101439.19;5109306;27;45155;-82
2022/01/31 07:03:13;;;;;;;;;1.75;0.75;;;;;7.79;69.00;101404.28;5112454;27;45323;-80
2022/01/31 07:05:39;;;;;;;;;1.00;1.00;;;;;8.07;68.62;101448.56;5115287;27;45082;-82
2022/01/31 07:08:04;;;;;;;;;1.75;1.00;;;;;7.87;68.71;101426.53;5112402;27;45959;-82
2022/01/31 07:10:30;;;;;;;;;1.00;1.00;;;;;7.66;68.96;101407.00;5114556;27;45128;-81
2022/01/31 07:12:57;;;;;;;;;0.50;0.25;;;;;7.64;69.09;101419.09;5114118;27;45900;-82
2022/01/31 07:15:23;;;;;;;;;2.00;1.50;;;;;7.60;68.89;101412.78;5112958;27;45252;-81
2022/01/31 07:17:48;;;;;;;;;1.00;1.00;;;;;7.75;68.59;101438.94;5110029;27;45344;-82
2022/01/31 07:20:35;;;;;;;;;2.00;2.00;;;;;7.97;68.86;101481.19;5114347;27;45040;-81
2022/01/31 07:23:08;;;;;;;;;0.50;0.00;;;;;7.71;68.84;101445.69;5114312;27;45188;-83
2022/01/31 07:25:36;;;;;;;;;4.50;2.75;;;;;7.83;68.91;101468.13;5111277;27;45386;-84
2022/01/31 07:28:08;;;;;;;;;2.00;1.00;;;;;7.61;68.74;101445.97;5108613;27;45695;-82
2022/01/31 07:30:35;;;;;;;;;2.00;2.00;;;;;7.78;68.92;101474.81;5092373;27;45235;-81
2022/01/31 07:33:01;;;;;;;;;1.75;1.00;;;;;7.87;68.78;101502.41;5111209;27;45451;-81
2022/01/31 07:35:27;;;;;;;;;1.00;1.00;;;;;7.71;68.65;101456.16;5113990;27;45168;-82
2022/01/31 07:37:52;;;;;;;;;2.50;2.00;;;;;7.65;68.61;101436.59;5109561;27;45138;-82
2022/01/31 07:40:17;;;;;;;;;1.00;0.50;;;;;7.52;68.31;101421.91;5118136;27;45104;-81
2022/01/31 07:42:43;;;;;;;;;1.00;1.00;;;;;7.74;68.02;101460.69;5106584;27;45173;-84
2022/01/31 07:45:08;;;;;;;;;4.50;2.00;;;;;7.80;68.38;101475.81;5106876;27;45359;-80
2022/01/31 07:47:34;;;;;;;;;2.00;1.00;;;;;7.84;68.34;101490.91;5104414;27;45269;-82
2022/01/31 07:49:59;;;;;;;;;2.00;2.00;;;;;7.58;68.42;101455.34;5131791;27;45121;-88
2022/01/31 07:52:25;;;;;;;;;3.00;1.00;;;;;7.92;67.83;101521.91;5108094;27;45269;-90
2022/01/31 07:54:51;;;;;;;;;1.00;1.00;;;;;7.04;68.16;101365.94;5109853;27;45129;-84
2022/01/31 07:57:18;;;;;;;;;2.00;1.00;;;;;6.98;68.09;101350.81;5101119;27;45185;-81
2022/01/31 07:59:43;;;;;;;;;2.00;2.00;;;;;7.88;67.94;101519.03;5102499;27;45485;-82
2022/01/31 08:02:09;;;;;;;;;1.00;1.00;;;;;7.88;67.92;101519.94;5099917;27;45723;-81
2022/01/31 08:04:34;;;;;;;;;6.50;2.00;;;;;8.00;68.02;101536.34;5096969;27;45857;-81
2022/01/31 08:06:59;;;;;;;;;2.00;1.00;;;;;7.83;67.71;101510.00;5096519;27;46502;-81
2022/01/31 08:09:25;;;;;;;;;2.00;2.00;;;;;7.79;67.74;101505.44;5104612;27;45213;-83
2022/01/31 08:11:50;;;;;;;;;2.50;1.00;;;;;8.12;67.62;101537.84;5104418;27;45805;-81
2022/01/31 08:14:18;;;;;;;;;2.00;2.00;;;;;8.15;67.43;101554.66;5110248;27;44852;-84
2022/01/31 08:16:43;;;;;;;;;1.00;0.50;;;;;8.00;67.49;101512.78;5103384;27;45310;-83
2022/01/31 08:19:09;;;;;;;;;3.75;2.00;;;;;8.31;67.65;101566.00;5110622;27;45406;-81
2022/01/31 08:21:37;;;;;;;;;1.75;1.75;;;;;8.11;67.57;101526.47;5104392;27;45133;-82
2022/01/31 08:24:03;;;;;;;;;4.00;2.00;;;;;8.27;67.44;101529.19;5106789;27;45220;-82
2022/01/31 08:26:29;;;;;;;;;4.50;2.75;;;;;8.43;67.30;101533.59;5106884;27;46631;-82
2022/01/31 08:31:28;;;;;;;;;1.00;1.00;;;;;8.64;67.26;101522.47;5110063;27;45551;-84
2022/01/31 08:36:26;;;;;;;;;3.00;2.00;;;;;8.87;67.27;101548.22;5110528;27;46452;-82
2022/01/31 08:38:54;;;;;;;;;1.75;1.75;;;;;8.76;67.14;101529.25;5107324;27;45315;-83
2022/01/31 08:41:19;;;;;;;;;1.50;1.25;;;;;8.60;66.57;101489.97;5112909;27;45125;-82
2022/01/31 08:43:45;;;;;;;;;1.00;1.00;;;;;8.82;66.80;101531.34;5112067;27;45032;-81
2022/01/31 08:46:13;;;;;;;;;1.50;1.25;;;;;8.77;66.34;101514.47;5112494;27;45502;-80
2022/01/31 08:48:39;;;;;;;;;3.50;1.00;;;;;9.10;66.25;101538.94;5112670;27;45179;-83
2022/01/31 08:51:07;;;;;;;;;3.00;1.00;;;;;9.15;66.42;101554.94;5105733;27;45241;-90
2022/01/31 08:53:33;;;;;;;;;2.75;2.00;;;;;8.68;66.02;101491.28;5096300;27;45310;-83
2022/01/31 08:56:02;;;;;;;;;3.75;2.50;;;;;8.74;66.44;101530.91;5109630;27;47520;-85
2022/01/31 08:58:28;;;;;;;;;2.00;1.75;;;;;9.15;66.06;101592.53;5110056;27;45165;-81
2022/01/31 09:01:04;;;;;;;;;2.00;2.00;;;;;8.97;66.53;101570.59;5112013;27;45168;-82
2022/01/31 09:06:07;;;;;;;;;1.50;1.00;;;;;9.34;65.69;101599.69;5110737;27;45566;-80
2022/01/31 09:08:33;;;;;;;;;4.00;2.00;;;;;9.41;65.45;101598.28;5110362;27;45559;-79
2022/01/31 09:10:59;;;;;;;;;1.25;1.00;;;;;9.24;65.48;101537.97;5106526;27;45089;-81
2022/01/31 09:13:25;;;;;;;;;3.00;2.00;;;;;9.25;65.00;101531.00;5105854;27;45182;-82
2022/01/31 09:15:51;;;;;;;;;1.00;1.00;;;;;9.42;64.92;101553.78;5106821;27;45420;-80
2022/01/31 09:18:16;;;;;;;;;3.25;2.25;;;;;9.17;64.86;101500.84;5111677;27;45145;-81
2022/01/31 09:20:42;;;;;;;;;2.00;2.00;;;;;9.44;64.79;101560.00;5112251;27;44968;-80
2022/01/31 09:23:08;;;;;;;;;2.75;2.00;;;;;9.32;64.61;101537.47;5104693;27;45277;-80
2022/01/31 09:25:33;;;;;;;;;2.25;2.00;;;;;9.27;65.08;101526.75;5102409;27;45689;-80
2022/01/31 09:28:02;;;;;;;;;3.75;3.00;;;;;9.17;64.39;101511.34;5112262;27;45137;-81
2022/01/31 09:30:27;;;;;;;;;3.00;2.00;;;;;9.00;64.30;101511.34;5111988;27;45136;-81
2022/01/31 09:32:57;;;;;;;;;2.25;2.00;;;;;9.28;64.41;101568.78;5107783;27;45803;-80
2022/01/31 09:35:34;;;;;;;;;1.00;1.00;;;;;9.30;64.60;101561.88;5105285;27;45791;-80
2022/01/31 09:38:00;;;;;;;;;1.75;1.00;;;;;9.13;64.15;101514.63;5109310;27;45076;-79
2022/01/31 09:40:26;;;;;;;;;3.50;2.75;;;;;9.47;64.50;101569.75;5100259;27;45230;-80
2022/01/31 09:48:39;;;;;;;;;3.75;2.00;;;;;9.62;63.65;101560.06;5090968;27;45537;-80
2022/01/31 09:51:16;;;;;;;;;2.75;1.75;;;;;9.89;63.16;101562.25;5098258;27;45535;-80
2022/01/31 09:54:01;;;;;;;;;4.00;2.25;;;;;10.03;62.58;101555.97;5093573;27;45670;-81
2022/01/31 09:56:33;;;;;;;;;1.75;1.25;;;;;9.83;62.64;101515.59;5106074;27;45468;-81
2022/01/31 09:59:00;;;;;;;;;1.50;1.50;;;;;10.09;62.73;101565.06;5101713;27;45866;-81
2022/01/31 10:01:30;;;;;;;;;2.25;1.50;;;;;10.11;62.15;101556.38;5097364;27;45381;-81
2022/01/31 10:03:58;;;;;;;;;2.25;0.50;;;;;9.89;62.06;101536.91;5091439;27;45566;-80
2022/01/31 10:06:29;;;;;;;;;0.50;0.50;;;;;10.04;62.00;101561.28;5072689;28;45899;-80
2022/01/31 10:09:17;;;;;;;;;1.00;1.00;;;;;9.97;61.23;101539.94;5072529;27;45292;-80
2022/01/31 10:11:51;;;;;;;;;2.75;0.75;;;;;9.94;60.85;101552.88;5080474;27;45632;-81
2022/01/31 10:17:32;;;;;;;;;4.25;2.00;;;;;9.84;60.49;101580.41;5074363;27;46208;-80
2022/01/31 10:20:04;;;;;;;;;1.75;1.00;;;;;9.39;60.54;101527.38;5074835;27;45740;-80
2022/01/31 10:22:32;;;;;;;;;3.25;2.00;;;;;9.34;60.66;101551.56;5090261;27;45664;-80
2022/01/31 10:25:01;;;;;;;;;1.50;1.50;;;;;9.50;60.59;101586.53;5095028;27;45604;-80
2022/01/31 10:27:29;;;;;;;;;1.00;1.00;;;;;9.52;60.40;101594.50;5093888;27;45495;-81
2022/01/31 10:30:11;;;;;;;;;1.25;1.00;;;;;9.60;60.10;101597.53;5096350;27;45311;-81
2022/01/31 10:32:40;;;;;;;;;0.00;0.00;;;;;9.50;60.28;101547.19;5095861;27;45788;-79
2022/01/31 10:35:08;;;;;;;;;0.50;0.50;;;;;10.05;59.45;101583.25;5094088;27;45599;-81
2022/01/31 10:37:38;;;;;;;;;1.00;1.00;;;;;9.99;58.82;101551.38;5094334;27;46131;-81
2022/01/31 10:46:22;;;;;;;;;0.50;0.25;;;;;9.95;58.77;101559.94;5096567;27;45444;-81
2022/01/31 10:52:04;;;;;;;;;3.25;1.75;;;;;9.93;58.38;101574.72;5096064;27;45444;-80
2022/01/31 10:57:14;;;;;;;;;1.00;1.00;;;;;10.05;58.21;101618.28;5095404;27;45622;-79
2022/01/31 10:59:43;;;;;;;;;2.00;0.25;;;;;9.95;57.88;101575.69;5092930;27;47688;-81
2022/01/31 11:02:20;;;;;;;;;1.25;1.00;;;;;9.86;57.84;101568.28;5095860;27;45718;-80
2022/01/31 11:04:47;;;;;;;;;1.00;1.00;;;;;10.09;57.38;101606.19;5095438;27;45519;-80
2022/01/31 11:07:18;;;;;;;;;3.00;1.50;;;;;10.30;57.49;101616.91;5096214;27;45476;-80
2022/01/31 11:09:45;;;;;;;;;0.00;0.00;;;;;10.11;56.79;101572.13;5095991;27;46440;-80
2022/01/31 11:12:12;;;;;;;;;1.00;0.50;;;;;10.43;56.34;101611.41;5095398;27;45449;-80
2022/01/31 11:14:42;;;;;;;;;1.25;1.00;;;;;10.19;56.39;101539.25;5093343;27;45578;-79
2022/01/31 11:17:10;;;;;;;;;2.00;1.00;;;;;10.55;55.91;101614.66;5093486;27;45307;-79
2022/01/31 11:19:41;;;;;;;;;2.00;2.00;;;;;10.56;56.08;101629.59;5087454;27;45599;-79
2022/01/31 11:22:09;;;;;;;;;1.00;1.00;;;;;10.40;55.45;101600.78;5094863;27;45396;-79
2022/01/31 11:24:48;;;;;;;;;1.00;1.00;;;;;10.44;55.26;101612.31;5095077;27;45421;-82
2022/01/31 11:27:21;;;;;;;;;0.75;0.75;;;;;10.43;55.33;101592.13;5094067;27;45383;-80
2022/01/31 11:29:49;;;;;;;;;1.00;1.00;;;;;10.54;54.42;101591.84;5093913;27;45449;-79
2022/01/31 11:32:15;;;;;;;;;1.00;1.00;;;;;10.29;55.08;101552.03;5095530;27;45263;-80
2022/01/31 11:34:43;;;;;;;;;2.00;1.00;;;;;10.47;54.58;101620.34;5095696;27;45274;-79
2022/01/31 11:37:11;;;;;;;;;1.00;0.00;;;;;10.28;56.63;101613.28;5095548;27;45599;-79
2022/01/31 11:39:49;;;;;;;;;3.00;2.25;;;;;10.15;57.11;101618.72;5095354;27;45883;-80
2022/01/31 11:42:17;;;;;;;;;1.25;1.25;;;;;10.12;58.13;101624.72;5093877;27;45712;-80
2022/01/31 11:44:59;;;;;;;;;1.25;0.75;;;;;10.03;58.37;101621.63;5091049;27;45572;-80
2022/01/31 11:47:28;;;;;;;;;1.00;1.00;;;;;9.86;58.66;101585.75;5092191;27;45527;-81
2022/01/31 11:49:59;;;;;;;;;2.00;2.00;;;;;10.20;59.46;101618.16;5093417;27;46207;-81
2022/01/31 11:52:30;;;;;;;;;2.00;1.00;;;;;10.28;58.99;101576.50;5095244;27;45597;-80
2022/01/31 11:54:59;;;;;;;;;2.25;1.50;;;;;10.38;58.78;101577.84;5090493;27;45840;-81
2022/01/31 11:57:31;;;;;;;;;1.75;1.50;;;;;10.54;58.43;101594.47;5089615;27;45574;-81
2022/01/31 12:00:09;;;;;;;;;1.25;1.25;;;;;10.68;57.29;101631.91;5093387;27;45532;-80